Decoded Metar for KSAN (SAN DIEGO in CA, USA) (IATA:SAN) | Meteo·Mobile Aviation Weather
aviador You're here:

KSAN Decoded Metar

SAN DIEGO in CA, USA
Report Time2019-01-20 10:51:00
UTC Time2019-01-20 11:24:23
Flight Rules vfr VFR
WindCalm
Visibility9999 m
Phenomena:N/A
Clouds:N/A
Expected CloudBase > 2,000 ft AGL from Temp-Dew spread
CeilingNone
Temp13°C (ISA -2)
Dew Point08°C (72% RH)
AAT12.6°C
QNH1019 hPa
Density Alt-246 ft
Elevation39 ft
Report Wrong Elevation
Raw Report
KSAN 201051Z 00000KT 10SM CLR 13/08 A3010 RMK AO2 SLP191
T01280083=

Extra information for KSAN:More info

Metar Taf Metar & Taf Last 4 Metars F.Rules Stats Wind Profile Meteogram Temp Stats Airport Information Weather charts Add Link Nearby VenuesMetar ALERT Operation Metar Decoded Social comments

AIRNAV info for KSAN